createdAt,value
2019-06-20T02:11:20.772Z,14.10
2019-06-20T02:12:56.682Z,17.00
2019-06-20T02:14:31.028Z,13.90
2019-06-20T02:16:07.430Z,17.02
2019-06-20T02:17:42.079Z,12.30
2019-06-20T02:19:17.043Z,13.05
2019-06-20T02:20:58.237Z,12.47
2019-06-20T02:22:33.155Z,16.70
2019-06-20T02:24:07.497Z,14.93
2019-06-20T02:25:43.930Z,13.45
2019-06-20T02:27:18.372Z,16.10
2019-06-20T02:28:53.315Z,16.05
2019-06-20T02:34:05.903Z,17.37
2019-06-20T02:35:40.829Z,17.62
2019-06-20T02:37:15.184Z,15.95
2019-06-20T02:38:50.107Z,17.20
2019-06-20T02:40:24.504Z,15.55
2019-06-20T02:41:59.858Z,14.33
2019-06-20T02:43:34.203Z,16.17
2019-06-20T02:45:08.970Z,20.35
2019-06-20T02:46:43.361Z,20.35
2019-06-20T02:48:18.304Z,24.10
2019-06-20T02:49:52.649Z,20.32
2019-06-20T02:51:28.028Z,16.73
2019-06-20T02:53:03.642Z,15.85
2019-06-20T02:54:38.645Z,20.17
2019-06-20T02:56:13.042Z,20.85
2019-06-20T02:57:47.981Z,17.85
2019-06-20T02:59:22.335Z,16.75
2019-06-20T03:00:58.860Z,17.57
2019-06-20T03:02:33.273Z,18.82
2019-06-20T03:04:08.308Z,19.10
2019-06-20T03:05:44.529Z,16.57
2019-06-20T03:07:19.548Z,21.75
2019-06-20T03:08:54.004Z,19.12
2019-06-20T03:10:28.933Z,14.30
2019-06-20T03:12:03.670Z,24.05
2019-06-20T03:13:38.391Z,22.05
2019-06-20T03:15:13.017Z,21.37
2019-06-20T03:16:47.941Z,19.00
2019-06-20T03:18:22.300Z,20.77
2019-06-20T03:19:57.293Z,20.32
2019-06-20T03:21:34.324Z,19.60
2019-06-20T03:23:09.271Z,21.70
2019-06-20T03:24:43.626Z,17.75
2019-06-20T03:26:18.552Z,26.10
2019-06-20T03:27:52.938Z,27.27
2019-06-20T03:29:27.947Z,25.65
2019-06-20T03:31:02.310Z,23.92
2019-06-20T03:32:37.238Z,24.50
2019-06-20T03:34:11.643Z,19.62
2019-06-20T03:35:46.568Z,23.95
2019-06-20T03:37:20.914Z,22.98
2019-06-20T03:38:55.847Z,17.82
2019-06-20T03:40:30.232Z,16.73
2019-06-20T03:42:05.260Z,17.77
2019-06-20T03:43:39.747Z,19.48
2019-06-20T03:45:15.429Z,18.42
2019-06-20T03:46:49.805Z,13.80
2019-06-20T03:48:24.732Z,17.60
2019-06-20T03:50:00.734Z,11.38
2019-06-20T03:51:35.686Z,13.78
2019-06-20T03:53:10.027Z,14.03
2019-06-20T03:54:44.999Z,17.25
2019-06-20T03:56:20.702Z,14.25
2019-06-20T03:57:55.630Z,15.25
2019-06-20T03:59:29.974Z,18.27
2019-06-20T04:01:05.015Z,13.65
2019-06-20T04:02:39.408Z,19.50
2019-06-20T04:04:14.340Z,17.15
2019-06-20T04:05:49.055Z,17.12
2019-06-20T04:07:23.978Z,15.50
2019-06-20T04:08:58.391Z,22.00
2019-06-20T04:10:33.594Z,17.27
2019-06-20T04:12:08.176Z,18.55
2019-06-20T04:13:43.191Z,15.55
2019-06-20T04:15:19.366Z,13.55
2019-06-20T04:16:54.276Z,14.85
2019-06-20T04:18:28.630Z,16.27
2019-06-20T04:20:04.244Z,14.33
2019-06-20T04:21:38.576Z,15.72
2019-06-20T04:23:13.540Z,14.98
2019-06-20T04:24:47.900Z,19.48
2019-06-20T04:26:22.832Z,24.72
2019-06-20T04:27:57.280Z,15.38
2019-06-20T04:29:35.771Z,19.12
2019-06-20T04:31:08.327Z,16.40
2019-06-20T04:32:43.369Z,13.72
2019-06-20T04:34:17.760Z,12.10
2019-06-20T04:35:52.428Z,12.07
2019-06-20T04:37:26.765Z,19.02
2019-06-20T04:39:01.752Z,16.77
2019-06-20T04:40:36.131Z,15.20
2019-06-20T04:42:10.777Z,15.68
2019-06-20T04:43:45.113Z,12.65
2019-06-20T04:45:35.312Z,10.40
2019-06-20T04:47:13.548Z,18.67
2019-06-20T04:48:48.529Z,8.33
2019-06-20T04:50:24.349Z,10.25
2019-06-20T04:51:59.367Z,15.45
2019-06-20T04:53:33.699Z,10.63
2019-06-20T04:55:08.615Z,11.83
2019-06-20T04:56:42.989Z,16.67
2019-06-20T04:58:17.912Z,11.18
2019-06-20T04:59:53.878Z,11.88
2019-06-20T05:01:28.535Z,12.47
2019-06-20T05:03:03.054Z,11.35
2019-06-20T05:04:37.977Z,13.75
2019-06-20T05:06:12.300Z,12.40
2019-06-20T05:07:48.221Z,11.97
2019-06-20T05:09:22.583Z,12.90
2019-06-20T05:10:57.497Z,13.53
2019-06-20T05:12:32.140Z,11.80
2019-06-20T05:14:07.069Z,10.23
2019-06-20T05:15:52.191Z,13.25
2019-06-20T05:17:18.098Z,13.98
2019-06-20T05:18:52.430Z,15.68
2019-06-20T05:20:27.081Z,17.45
2019-06-20T05:22:01.436Z,11.68
2019-06-20T05:23:36.098Z,13.15
2019-06-20T05:25:11.176Z,11.90
2019-06-20T05:26:46.109Z,12.55
2019-06-20T05:28:20.476Z,10.35
2019-06-20T05:29:55.392Z,12.23
2019-06-20T05:31:29.728Z,12.28
2019-06-20T05:33:04.716Z,12.58
2019-06-20T05:34:39.073Z,9.35
2019-06-20T05:36:13.987Z,14.85
2019-06-20T05:37:48.336Z,16.17
2019-06-20T05:39:23.225Z,10.85
2019-06-20T05:40:57.599Z,11.83
2019-06-20T05:42:32.502Z,9.35
2019-06-20T05:44:06.831Z,15.10
2019-06-20T05:45:44.438Z,12.25
2019-06-20T05:47:17.872Z,15.60
2019-06-20T05:48:52.571Z,16.52
2019-06-20T05:50:26.912Z,13.25
2019-06-20T05:52:01.824Z,17.25
2019-06-20T05:53:36.264Z,13.00
2019-06-20T05:55:11.399Z,13.22
2019-06-20T05:56:45.731Z,16.10
2019-06-20T05:58:20.690Z,13.60
2019-06-20T05:59:55.721Z,16.97
2019-06-20T06:01:30.635Z,12.73
2019-06-20T06:03:07.130Z,16.25
2019-06-20T06:04:41.722Z,11.60
2019-06-20T06:06:16.055Z,20.25
2019-06-20T06:07:51.088Z,10.80
2019-06-20T06:09:25.462Z,11.80
2019-06-20T06:11:00.123Z,15.03
2019-06-20T06:12:36.358Z,14.20
2019-06-20T06:14:11.406Z,10.45
2019-06-20T06:15:45.908Z,11.80
2019-06-20T06:17:21.109Z,17.55
2019-06-20T06:18:55.552Z,15.15
2019-06-20T06:20:32.019Z,11.75
2019-06-20T06:22:06.343Z,11.03
2019-06-20T06:23:41.307Z,14.90
2019-06-20T06:25:15.964Z,10.40
2019-06-20T06:26:50.844Z,9.80
2019-06-20T06:28:25.310Z,13.22
2019-06-20T06:30:00.258Z,9.60
2019-06-20T06:31:36.170Z,11.97
2019-06-20T06:33:11.095Z,12.53
2019-06-20T06:34:45.535Z,12.93
2019-06-20T06:36:20.222Z,8.63
2019-06-20T06:37:54.561Z,13.48
2019-06-20T06:39:29.491Z,15.80
2019-06-20T06:41:04.212Z,11.63
2019-06-20T06:42:39.166Z,10.13
2019-06-20T06:44:13.503Z,12.58
2019-06-20T06:45:48.419Z,15.95
2019-06-20T06:47:22.793Z,12.58
2019-06-20T06:48:57.747Z,14.33
2019-06-20T06:50:32.031Z,12.70
2019-06-20T06:52:07.005Z,13.93
2019-06-20T06:53:41.332Z,11.68
2019-06-20T06:55:17.990Z,12.33
2019-06-20T06:56:52.309Z,11.28
2019-06-20T06:58:27.363Z,11.18
2019-06-20T07:00:01.675Z,9.80
2019-06-20T07:01:36.579Z,13.32
2019-06-20T07:03:11.000Z,12.82
2019-06-20T07:04:46.029Z,15.13
2019-06-20T07:06:20.355Z,11.10
2019-06-20T07:07:55.270Z,8.90
2019-06-20T07:09:29.620Z,9.75
2019-06-20T07:11:04.746Z,12.88
2019-06-20T07:12:39.595Z,10.38
2019-06-20T07:14:14.562Z,11.97
2019-06-20T07:15:48.918Z,9.80
2019-06-20T07:17:23.953Z,12.47
2019-06-20T07:18:58.283Z,10.48
2019-06-20T07:20:33.202Z,10.08
2019-06-20T07:22:07.535Z,16.55
2019-06-20T07:23:42.492Z,12.28
2019-06-20T07:25:16.819Z,14.80
2019-06-20T07:26:52.051Z,8.38
2019-06-20T07:28:26.448Z,12.00
2019-06-20T07:30:02.011Z,8.25
2019-06-20T07:31:36.373Z,9.23
2019-06-20T07:33:12.002Z,12.93
2019-06-20T07:34:46.426Z,11.60
2019-06-20T07:36:21.344Z,10.90
2019-06-20T07:37:55.688Z,7.60
2019-06-20T07:39:30.607Z,8.65
2019-06-20T07:41:04.982Z,8.53
2019-06-20T07:42:40.490Z,12.90
2019-06-20T07:44:14.903Z,8.93
2019-06-20T07:46:01.997Z,10.30
2019-06-20T07:47:25.898Z,8.10
2019-06-20T07:49:00.841Z,10.28
2019-06-20T07:50:35.175Z,10.98
2019-06-20T07:52:10.102Z,8.93
2019-06-20T07:53:44.420Z,9.35
2019-06-20T07:55:19.927Z,8.50
2019-06-20T07:56:54.301Z,11.63
2019-06-20T07:58:29.606Z,7.08
2019-06-20T08:00:06.913Z,8.43
2019-06-20T08:01:41.824Z,8.15
2019-06-20T08:03:16.197Z,11.78
2019-06-20T08:04:51.111Z,11.40
2019-06-20T08:06:25.439Z,10.95
2019-06-20T08:08:00.464Z,12.15
2019-06-20T08:09:44.848Z,9.83
2019-06-20T08:11:11.602Z,7.75
2019-06-20T08:12:46.376Z,17.75
2019-06-20T08:14:21.352Z,11.68
2019-06-20T08:15:55.932Z,11.00
2019-06-20T08:17:35.626Z,12.25
2019-06-20T08:19:07.556Z,9.83
2019-06-20T08:20:42.475Z,8.23
2019-06-20T08:22:16.896Z,11.68
2019-06-20T08:23:51.839Z,13.55
2019-06-20T08:25:26.165Z,8.88
2019-06-20T08:27:03.086Z,7.75
2019-06-20T08:28:37.175Z,11.57
2019-06-20T08:30:12.239Z,8.68
2019-06-20T08:31:46.740Z,6.42
2019-06-20T08:33:21.635Z,10.20
2019-06-20T08:34:56.619Z,10.48
2019-06-20T08:36:32.821Z,11.75
2019-06-20T08:38:07.604Z,9.63
2019-06-20T08:39:42.683Z,5.65
2019-06-20T08:41:17.013Z,7.58
2019-06-20T08:42:52.035Z,8.30
2019-06-20T08:44:26.385Z,8.78
2019-06-20T08:46:01.718Z,8.48
2019-06-20T08:47:36.102Z,9.40
2019-06-20T08:49:10.752Z,10.10
2019-06-20T08:50:45.117Z,7.45
2019-06-20T08:52:20.105Z,12.78
2019-06-20T08:53:55.758Z,7.67
2019-06-20T08:55:31.292Z,6.83
2019-06-20T08:57:05.992Z,8.75
2019-06-20T08:58:40.908Z,7.22
2019-06-20T09:00:18.088Z,8.23
2019-06-20T09:01:56.004Z,12.20
2019-06-20T09:03:29.052Z,9.90
2019-06-20T09:05:05.219Z,7.45
2019-06-20T09:06:39.611Z,7.62
2019-06-20T09:08:14.282Z,8.63
2019-06-20T09:09:48.599Z,9.45
2019-06-20T09:11:23.563Z,6.12
2019-06-20T09:12:59.125Z,7.60
2019-06-20T09:14:34.127Z,4.90
2019-06-20T09:16:21.206Z,6.62
2019-06-20T09:17:45.731Z,7.35
2019-06-20T09:19:20.143Z,6.75
2019-06-20T09:20:55.978Z,6.05
2019-06-20T09:22:30.673Z,5.80
2019-06-20T09:24:05.676Z,7.03
2019-06-20T09:25:40.020Z,4.67
2019-06-20T09:27:14.998Z,7.83
2019-06-20T09:28:50.938Z,5.60
2019-06-20T09:30:26.272Z,6.03
2019-06-20T09:32:00.657Z,5.37
2019-06-20T09:33:35.570Z,8.38
2019-06-20T09:35:10.943Z,5.00
2019-06-20T09:36:47.741Z,5.33
2019-06-20T09:38:23.737Z,4.55
2019-06-20T09:39:59.189Z,9.75
2019-06-20T09:41:33.770Z,4.65
2019-06-20T09:43:08.806Z,9.40
2019-06-20T09:44:43.119Z,4.80
2019-06-20T09:46:18.073Z,7.00
2019-06-20T09:47:53.530Z,6.50
2019-06-20T09:49:28.780Z,8.35
2019-06-20T09:51:03.156Z,10.30
2019-06-20T09:52:38.072Z,4.15
2019-06-20T09:54:12.410Z,7.37
2019-06-20T09:55:48.387Z,5.37
2019-06-20T09:57:23.148Z,5.92
2019-06-20T09:58:58.358Z,7.33
2019-06-20T10:00:33.757Z,5.42
2019-06-20T10:02:09.128Z,6.85
2019-06-20T10:03:43.439Z,8.23
2019-06-20T10:05:18.192Z,6.72
2019-06-20T10:06:52.563Z,4.60
2019-06-20T10:08:27.489Z,8.25
2019-06-20T10:10:01.965Z,6.17
2019-06-20T10:11:36.659Z,4.10
2019-06-20T10:13:11.250Z,8.80
2019-06-20T10:14:46.897Z,6.75
2019-06-20T10:16:21.931Z,8.58
2019-06-20T10:17:57.341Z,6.53
2019-06-20T10:19:31.739Z,7.50
2019-06-20T10:21:06.662Z,4.83
2019-06-20T10:22:41.035Z,6.92
2019-06-20T10:24:15.951Z,5.25
2019-06-20T10:25:51.487Z,4.87
2019-06-20T10:27:26.566Z,8.35
2019-06-20T10:29:01.003Z,6.87
2019-06-20T10:30:35.989Z,6.80
2019-06-20T10:32:10.322Z,5.58
2019-06-20T10:33:46.889Z,7.60
2019-06-20T10:35:21.560Z,6.33
2019-06-20T10:36:57.109Z,4.28
2019-06-20T10:38:31.596Z,3.85
2019-06-20T10:40:08.433Z,4.45
2019-06-20T10:41:44.685Z,7.37
2019-06-20T10:43:19.430Z,4.80
2019-06-20T10:44:53.802Z,4.05
2019-06-20T10:46:28.707Z,5.47
2019-06-20T10:48:03.117Z,9.60
2019-06-20T10:49:38.058Z,4.42
2019-06-20T10:51:30.305Z,7.03
2019-06-20T10:53:04.733Z,6.60
2019-06-20T10:54:41.614Z,6.45
2019-06-20T10:56:15.941Z,5.83
2019-06-20T10:57:51.922Z,6.25
2019-06-20T10:59:26.542Z,5.40
2019-06-20T11:01:01.495Z,5.50
2019-06-20T11:02:35.897Z,7.12
2019-06-20T11:04:10.815Z,5.08
2019-06-20T11:05:45.529Z,6.00
2019-06-20T11:07:20.571Z,6.10
2019-06-20T11:08:54.904Z,4.70
2019-06-20T11:10:31.138Z,3.45
2019-06-20T11:12:05.546Z,4.85
2019-06-20T11:13:40.716Z,6.17
2019-06-20T11:15:15.446Z,6.97
2019-06-20T11:16:51.832Z,7.62
2019-06-20T11:18:26.209Z,6.87
2019-06-20T11:20:01.410Z,6.15
2019-06-20T11:21:37.926Z,3.98
2019-06-20T11:23:12.478Z,6.78
2019-06-20T11:24:48.479Z,6.33
2019-06-20T11:26:26.135Z,7.12
2019-06-20T11:28:00.465Z,7.60
2019-06-20T11:29:37.769Z,7.60
2019-06-20T11:31:14.122Z,6.08
2019-06-20T11:32:49.052Z,5.87
2019-06-20T11:34:23.401Z,10.03
2019-06-20T11:35:58.338Z,5.97
2019-06-20T11:37:32.662Z,6.20
2019-06-20T11:39:08.476Z,7.03
2019-06-20T11:40:43.889Z,7.15
2019-06-20T11:42:19.044Z,9.00
2019-06-20T11:43:53.373Z,9.10
2019-06-20T11:45:28.476Z,9.35
2019-06-20T11:47:02.919Z,7.58
2019-06-20T11:48:38.472Z,8.15
2019-06-20T11:50:15.180Z,6.15
2019-06-20T11:51:50.158Z,8.70
2019-06-20T11:53:24.480Z,8.73
2019-06-20T11:54:59.402Z,5.53
2019-06-20T11:56:33.725Z,5.40
2019-06-20T11:58:08.790Z,4.05
2019-06-20T11:59:43.074Z,7.15
2019-06-20T12:01:32.098Z,7.00
2019-06-20T12:02:54.035Z,4.12
2019-06-20T12:04:29.011Z,6.08
2019-06-20T12:06:03.341Z,7.05
2019-06-20T12:07:39.590Z,6.03
2019-06-20T12:09:14.404Z,6.92
2019-06-20T12:10:49.511Z,5.95
2019-06-20T12:12:23.865Z,8.13
2019-06-20T12:13:59.038Z,4.72
2019-06-20T12:15:33.368Z,6.67
2019-06-20T12:17:08.317Z,5.78
2019-06-20T12:18:43.123Z,5.58
2019-06-20T12:20:19.050Z,7.30
2019-06-20T12:21:53.676Z,7.50
2019-06-20T12:23:28.630Z,4.20
2019-06-20T12:25:05.309Z,5.60
2019-06-20T12:26:40.792Z,5.83
2019-06-20T12:28:15.594Z,6.35
2019-06-20T12:29:50.617Z,6.10
2019-06-20T12:31:25.017Z,5.08
2019-06-20T12:32:59.935Z,12.18
2019-06-20T12:34:34.274Z,7.00
2019-06-20T12:36:09.320Z,5.40
2019-06-20T12:37:45.435Z,7.30
2019-06-20T12:39:20.345Z,6.67
2019-06-20T12:40:54.745Z,8.68
2019-06-20T12:42:29.400Z,9.15
2019-06-20T12:44:03.733Z,8.68
2019-06-20T12:45:40.045Z,4.80
2019-06-20T12:47:14.759Z,5.12
2019-06-20T12:48:49.423Z,4.45
2019-06-20T12:50:24.806Z,5.80
2019-06-20T12:51:59.736Z,7.78
2019-06-20T12:53:34.062Z,6.45
2019-06-20T12:55:09.085Z,7.20
2019-06-20T12:56:46.271Z,4.30
2019-06-20T12:58:22.759Z,6.53
2019-06-20T12:59:57.490Z,6.75
2019-06-20T13:01:38.960Z,5.80
2019-06-20T13:03:10.015Z,5.85
2019-06-20T13:04:46.027Z,6.60
2019-06-20T13:06:20.566Z,7.33
2019-06-20T13:07:55.776Z,5.75
2019-06-20T13:09:30.112Z,6.90
2019-06-20T13:11:05.139Z,5.05
2019-06-20T13:12:40.832Z,6.47
2019-06-20T13:14:16.342Z,8.33
2019-06-20T13:15:50.670Z,7.50
2019-06-20T13:17:25.584Z,5.00
2019-06-20T13:18:59.960Z,3.72
2019-06-20T13:20:34.880Z,6.58
2019-06-20T13:22:09.207Z,7.28
2019-06-20T13:23:45.044Z,4.35
2019-06-20T13:25:19.988Z,8.88
2019-06-20T13:26:54.895Z,6.12
2019-06-20T13:28:29.226Z,3.65
2019-06-20T13:30:05.986Z,7.85
2019-06-20T13:31:56.242Z,7.70
2019-06-20T13:33:16.994Z,3.87
2019-06-20T13:34:51.335Z,7.85
2019-06-20T13:36:26.251Z,5.33
2019-06-20T13:38:00.613Z,5.65
2019-06-20T13:39:35.786Z,5.53
2019-06-20T13:41:10.146Z,6.65
2019-06-20T13:42:46.148Z,3.92
2019-06-20T13:44:21.800Z,4.45
2019-06-20T13:45:56.756Z,6.45
2019-06-20T13:47:31.087Z,4.03
2019-06-20T13:49:06.011Z,5.03
2019-06-20T13:50:41.878Z,5.03
2019-06-20T13:52:17.869Z,6.00
2019-06-20T13:53:52.204Z,4.35
2019-06-20T13:55:27.129Z,3.10
2019-06-20T13:57:01.456Z,3.80
2019-06-20T13:58:36.372Z,3.37
2019-06-20T14:00:11.702Z,52.48
2019-06-20T14:01:47.747Z,3.80
2019-06-20T14:03:22.725Z,3.95
2019-06-20T14:04:57.639Z,5.55
2019-06-20T14:06:31.962Z,5.28
2019-06-20T14:08:06.940Z,5.45
2019-06-20T14:09:41.601Z,3.60
2019-06-20T14:11:17.960Z,4.05
2019-06-20T14:12:52.282Z,9.48
2019-06-20T14:14:27.600Z,5.33
2019-06-20T14:16:01.929Z,5.33
2019-06-20T14:17:36.838Z,9.83
2019-06-20T14:19:11.159Z,3.98
2019-06-20T14:20:46.714Z,2.85
2019-06-20T14:22:21.244Z,5.87
2019-06-20T14:23:56.690Z,3.60
2019-06-20T14:25:34.164Z,3.95
2019-06-20T14:27:07.840Z,4.78
2019-06-20T14:28:43.049Z,5.03
2019-06-20T14:30:19.868Z,2.80
2019-06-20T14:31:54.191Z,4.60
2019-06-20T14:33:31.841Z,4.97
2019-06-20T14:35:06.687Z,3.42
2019-06-20T14:36:42.898Z,9.05
2019-06-20T14:38:17.685Z,3.10
2019-06-20T14:39:52.701Z,6.25
2019-06-20T14:41:27.445Z,4.58
2019-06-20T14:43:02.355Z,5.33
2019-06-20T14:44:36.684Z,6.45
2019-06-20T14:46:11.597Z,4.30
2019-06-20T14:47:45.971Z,5.83
2019-06-20T14:49:20.872Z,6.37
2019-06-20T14:50:55.495Z,4.67
2019-06-20T14:52:30.689Z,6.67
2019-06-20T14:54:05.147Z,3.90
2019-06-20T14:55:40.066Z,5.83
2019-06-20T14:57:14.791Z,4.85
2019-06-20T14:58:51.438Z,5.55
2019-06-20T15:00:26.590Z,5.25
2019-06-20T15:02:02.954Z,6.78
2019-06-20T15:03:37.337Z,8.03
2019-06-20T15:05:17.500Z,4.78
2019-06-20T15:06:52.388Z,6.90
2019-06-20T15:08:27.676Z,10.25
2019-06-20T15:10:03.856Z,9.05
2019-06-20T15:11:38.620Z,5.22
2019-06-20T15:13:13.354Z,7.03
2019-06-20T15:14:49.810Z,5.75
2019-06-20T15:16:24.837Z,4.00
2019-06-20T15:17:59.778Z,7.03
2019-06-20T15:19:34.127Z,4.92
2019-06-20T15:21:09.052Z,4.40
2019-06-20T15:22:43.475Z,6.47
2019-06-20T15:24:18.392Z,5.03
2019-06-20T15:25:54.117Z,4.45
2019-06-20T15:27:29.151Z,7.95
2019-06-20T15:29:06.176Z,6.92
2019-06-20T15:30:40.564Z,4.33
2019-06-20T15:32:14.935Z,5.08
2019-06-20T15:33:51.495Z,3.85
2019-06-20T15:35:25.897Z,5.87
2019-06-20T15:37:00.873Z,5.33
2019-06-20T15:38:35.253Z,4.22
2019-06-20T15:40:10.967Z,4.10
2019-06-20T15:41:45.338Z,5.15
2019-06-20T15:43:20.250Z,5.40
2019-06-20T15:44:55.668Z,7.85
2019-06-20T15:46:30.762Z,7.47
2019-06-20T15:48:05.235Z,7.22
2019-06-20T15:49:40.164Z,8.68
2019-06-20T15:51:14.552Z,5.50
2019-06-20T15:52:49.463Z,4.75
2019-06-20T15:54:24.618Z,23.98
2019-06-20T15:55:59.635Z,7.65
2019-06-20T15:57:34.018Z,7.92
2019-06-20T15:59:09.010Z,8.60
2019-06-20T16:00:43.643Z,7.28
2019-06-20T16:02:18.692Z,9.08
2019-06-20T16:03:53.055Z,9.90
2019-06-20T16:05:27.968Z,5.58
2019-06-20T16:07:02.402Z,5.12
2019-06-20T16:08:37.308Z,7.85
2019-06-20T16:10:13.076Z,9.63
2019-06-20T16:11:48.041Z,7.20
2019-06-20T16:13:22.387Z,7.78
2019-06-20T16:14:57.698Z,5.25
2019-06-20T16:16:32.022Z,9.20
2019-06-20T16:18:06.978Z,11.50
2019-06-20T16:19:41.309Z,6.60
2019-06-20T16:21:16.223Z,7.35
2019-06-20T16:22:50.731Z,9.40
2019-06-20T16:24:25.672Z,8.35
2019-06-20T16:26:00.041Z,11.43
2019-06-20T16:27:35.034Z,11.10
2019-06-20T16:29:09.429Z,13.30
2019-06-20T16:30:44.881Z,12.73
2019-06-20T16:32:19.218Z,14.33
2019-06-20T16:33:54.128Z,9.13
2019-06-20T16:35:28.565Z,6.83
2019-06-20T16:37:10.208Z,8.58
2019-06-20T16:38:39.527Z,11.78
2019-06-20T16:40:15.504Z,10.78
2019-06-20T16:41:49.881Z,12.98
2019-06-20T16:43:24.801Z,18.10
2019-06-20T16:44:59.133Z,12.28
2019-06-20T16:46:34.757Z,14.35
2019-06-20T16:48:09.544Z,14.35
2019-06-20T16:49:44.452Z,14.20
2019-06-20T16:51:18.781Z,9.75
2019-06-20T16:52:53.725Z,8.43
2019-06-20T16:54:28.053Z,10.85
2019-06-20T16:56:03.013Z,10.13
2019-06-20T16:57:37.386Z,7.50
2019-06-20T16:59:14.251Z,11.40
2019-06-20T17:00:48.346Z,9.60
2019-06-20T17:02:23.660Z,6.90
2019-06-20T17:03:58.031Z,9.33
2019-06-20T17:05:32.957Z,12.90
2019-06-20T17:07:07.294Z,8.88
2019-06-20T17:08:42.275Z,8.90
2019-06-20T17:10:16.763Z,8.05
2019-06-20T17:11:51.678Z,10.88
2019-06-20T17:13:26.009Z,7.53
2019-06-20T17:15:01.289Z,8.73
2019-06-20T17:16:35.683Z,14.47
2019-06-20T17:18:11.263Z,8.48
2019-06-20T17:19:45.581Z,8.90
2019-06-20T17:21:20.269Z,8.08
2019-06-20T17:22:54.599Z,15.18
2019-06-20T17:24:29.578Z,10.95
2019-06-20T17:26:03.963Z,7.72
2019-06-20T17:27:38.874Z,6.62
2019-06-20T17:29:13.202Z,8.58
2019-06-20T17:30:48.154Z,10.90
2019-06-20T17:32:22.551Z,8.63
2019-06-20T17:33:58.118Z,8.88
2019-06-20T17:35:32.575Z,9.20
2019-06-20T17:37:07.501Z,11.03
2019-06-20T17:38:41.870Z,5.17
2019-06-20T17:40:18.304Z,6.50
2019-06-20T17:41:55.605Z,8.90
2019-06-20T17:43:29.330Z,6.75
2019-06-20T17:45:05.022Z,12.88
2019-06-20T17:46:40.038Z,9.08
2019-06-20T17:48:14.371Z,8.15
2019-06-20T17:49:49.309Z,6.65
2019-06-20T17:51:23.642Z,6.92
2019-06-20T17:52:58.591Z,7.78
2019-06-20T17:54:32.916Z,12.25
2019-06-20T17:56:07.850Z,10.43
2019-06-20T17:57:42.189Z,7.47
2019-06-20T17:59:17.136Z,10.40
2019-06-20T18:00:51.481Z,8.75
2019-06-20T18:02:26.387Z,6.87
2019-06-20T18:04:12.933Z,8.03
2019-06-20T18:05:37.573Z,10.45
2019-06-20T18:07:11.886Z,9.83
2019-06-20T18:08:46.798Z,9.43
2019-06-20T18:10:21.529Z,9.00
2019-06-20T18:11:56.657Z,9.50
2019-06-20T18:13:30.981Z,7.92
2019-06-20T18:15:08.011Z,5.87
2019-06-20T18:16:42.440Z,7.10
2019-06-20T18:18:17.365Z,10.63
2019-06-20T18:19:51.761Z,12.15
2019-06-20T18:21:26.963Z,7.50
2019-06-20T18:23:01.345Z,9.23
2019-06-20T18:24:36.311Z,8.15
2019-06-20T18:26:10.682Z,9.70
2019-06-20T18:27:45.587Z,10.32
2019-06-20T18:29:20.088Z,8.13
2019-06-20T18:30:55.008Z,7.58
2019-06-20T18:32:29.451Z,10.95
2019-06-20T18:34:04.388Z,11.12
2019-06-20T18:35:39.161Z,11.38
2019-06-20T18:37:30.155Z,9.03
2019-06-20T18:38:50.377Z,6.83
2019-06-20T18:40:25.339Z,9.50
2019-06-20T18:41:59.688Z,11.70
2019-06-20T18:43:34.734Z,11.85
2019-06-20T18:45:09.965Z,9.83
2019-06-20T18:46:44.933Z,9.40
2019-06-20T18:48:19.589Z,9.03
2019-06-20T18:49:54.619Z,13.03
2019-06-20T18:51:29.114Z,10.50
2019-06-20T18:53:04.096Z,16.00
2019-06-20T18:54:38.430Z,10.25
2019-06-20T18:56:13.582Z,17.12
2019-06-20T18:57:48.059Z,10.70
2019-06-20T18:59:23.155Z,12.28
2019-06-20T19:00:57.706Z,8.55
2019-06-20T19:02:32.677Z,9.78
2019-06-20T19:04:07.107Z,12.07
2019-06-20T19:05:42.178Z,10.43
2019-06-20T19:07:16.794Z,14.68
2019-06-20T19:08:51.972Z,7.75
2019-06-20T19:10:26.404Z,10.50
2019-06-20T19:12:01.541Z,8.60
2019-06-20T19:13:35.906Z,9.58
2019-06-20T19:15:11.939Z,12.15
2019-06-20T19:16:46.397Z,11.53
2019-06-20T19:18:23.125Z,13.30
2019-06-20T19:19:57.475Z,9.58
2019-06-20T19:21:32.399Z,8.70
2019-06-20T19:23:06.950Z,10.15
2019-06-20T19:24:41.626Z,12.73
2019-06-20T19:26:16.022Z,8.78
2019-06-20T19:27:51.018Z,12.65
2019-06-20T19:29:25.340Z,7.50
2019-06-20T19:31:00.312Z,9.30
2019-06-20T19:32:34.635Z,8.85
2019-06-20T19:34:09.594Z,8.03
2019-06-20T19:35:43.983Z,8.50
2019-06-20T19:37:19.029Z,11.55
2019-06-20T19:38:53.409Z,8.05
2019-06-20T19:40:31.234Z,12.03
2019-06-20T19:42:05.661Z,8.83
2019-06-20T19:43:40.610Z,9.93
2019-06-20T19:45:16.581Z,8.68
2019-06-20T19:46:53.627Z,15.25
2019-06-20T19:48:27.958Z,10.10
2019-06-20T19:50:02.933Z,8.70
2019-06-20T19:51:37.358Z,11.03
2019-06-20T19:53:12.834Z,13.20
2019-06-20T19:54:47.172Z,11.18
2019-06-20T19:56:22.192Z,10.58
2019-06-20T19:57:56.523Z,10.35
2019-06-20T19:59:31.270Z,9.48
2019-06-20T20:01:05.628Z,10.30
2019-06-20T20:02:40.695Z,12.13
2019-06-20T20:04:15.018Z,10.63
2019-06-20T20:05:50.047Z,12.20
2019-06-20T20:07:24.394Z,9.30
2019-06-20T20:08:59.772Z,9.68
2019-06-20T20:10:49.881Z,14.05
2019-06-20T20:12:24.786Z,9.55
2019-06-20T20:13:59.154Z,10.30
2019-06-20T20:15:34.650Z,9.13
2019-06-20T20:17:08.965Z,9.33
2019-06-20T20:18:43.890Z,14.90
2019-06-20T20:20:18.667Z,10.45
2019-06-20T20:21:53.564Z,9.58
2019-06-20T20:23:27.878Z,8.90
2019-06-20T20:25:03.402Z,12.58
2019-06-20T20:26:37.801Z,10.25
2019-06-20T20:28:12.694Z,9.03
2019-06-20T20:29:47.030Z,13.35
2019-06-20T20:31:21.993Z,9.75
2019-06-20T20:32:56.337Z,10.88
2019-06-20T20:34:31.250Z,10.45
2019-06-20T20:36:05.598Z,9.38
2019-06-20T20:37:40.537Z,13.22
2019-06-20T20:39:16.921Z,10.60
2019-06-20T20:40:52.001Z,13.55
2019-06-20T20:42:26.348Z,9.68
2019-06-20T20:44:01.275Z,10.18
2019-06-20T20:45:35.564Z,8.98
2019-06-20T20:47:10.533Z,12.05
2019-06-20T20:48:44.855Z,11.73
2019-06-20T20:50:20.670Z,10.38
2019-06-20T20:51:55.004Z,11.10
2019-06-20T20:53:30.135Z,10.23
2019-06-20T20:55:07.409Z,9.95
2019-06-20T20:56:42.324Z,12.45
2019-06-20T20:58:16.683Z,9.38
2019-06-20T20:59:51.946Z,10.30
2019-06-20T21:01:35.311Z,10.45
2019-06-20T21:03:09.142Z,14.15
2019-06-20T21:04:43.533Z,11.90
2019-06-20T21:06:18.436Z,10.38
2019-06-20T21:07:52.806Z,9.20
2019-06-20T21:09:27.714Z,13.25
2019-06-20T21:11:02.658Z,15.08
2019-06-20T21:12:37.596Z,12.05
2019-06-20T21:14:11.931Z,12.60
2019-06-20T21:15:47.448Z,13.62
2019-06-20T21:17:21.814Z,9.65
2019-06-20T21:18:56.741Z,11.90
2019-06-20T21:20:31.101Z,12.82
2019-06-20T21:22:06.026Z,14.80
2019-06-20T21:23:40.367Z,13.83
2019-06-20T21:25:15.350Z,11.08
2019-06-20T21:26:50.288Z,10.85
2019-06-20T21:28:25.625Z,12.60
2019-06-20T21:29:59.954Z,11.57
2019-06-20T21:31:34.614Z,15.98
2019-06-20T21:33:08.981Z,17.20
2019-06-20T21:34:43.959Z,14.98
2019-06-20T21:36:18.286Z,13.55
2019-06-20T21:37:53.275Z,10.30
2019-06-20T21:39:27.649Z,15.03
2019-06-20T21:41:02.662Z,11.95
2019-06-20T21:42:37.061Z,12.25
2019-06-20T21:44:12.019Z,11.90
2019-06-20T21:45:46.683Z,12.65
2019-06-20T21:47:21.603Z,12.43
2019-06-20T21:48:55.937Z,13.28
2019-06-20T21:50:31.071Z,12.35
2019-06-20T21:52:05.407Z,10.78
2019-06-20T21:53:40.325Z,11.68
2019-06-20T21:55:14.661Z,15.00
2019-06-20T21:56:49.613Z,11.12
2019-06-20T21:58:23.944Z,11.08
2019-06-20T21:59:59.462Z,11.10
2019-06-20T22:01:34.497Z,12.25
2019-06-20T22:03:10.426Z,11.45
2019-06-20T22:04:54.025Z,13.72
2019-06-20T22:06:24.114Z,15.23
2019-06-20T22:07:57.454Z,11.35
2019-06-20T22:09:32.379Z,10.58
2019-06-20T22:11:06.717Z,13.80
2019-06-20T22:12:41.696Z,14.07
2019-06-20T22:14:16.130Z,11.48
2019-06-20T22:15:51.431Z,12.98
2019-06-20T22:17:25.773Z,16.55
2019-06-20T22:19:00.723Z,13.93
2019-06-20T22:20:35.047Z,10.50
2019-06-20T22:22:10.069Z,12.60
2019-06-20T22:23:44.712Z,9.88
2019-06-20T22:25:20.224Z,13.72
2019-06-20T22:26:54.634Z,16.37
2019-06-20T22:28:29.544Z,15.65
2019-06-20T22:30:09.046Z,13.65
2019-06-20T22:31:44.129Z,11.55
2019-06-20T22:33:18.458Z,12.30
2019-06-20T22:34:53.371Z,11.22
2019-06-20T22:36:39.666Z,14.47
2019-06-20T22:38:04.385Z,13.08
2019-06-20T22:39:38.731Z,13.45
2019-06-20T22:41:13.660Z,14.28
2019-06-20T22:42:48.031Z,13.22
2019-06-20T22:44:23.034Z,14.75
2019-06-20T22:45:57.914Z,18.27
2019-06-20T22:47:32.879Z,13.83
2019-06-20T22:49:07.220Z,13.80
2019-06-20T22:50:42.136Z,10.98
2019-06-20T22:52:16.524Z,12.60
2019-06-20T22:53:51.194Z,14.05
2019-06-20T22:55:27.013Z,16.67
2019-06-20T22:57:01.937Z,12.65
2019-06-20T22:58:36.383Z,11.48